Happy Valentine's Day! 

Flight Track Log - Related Links

Times and Time Zones

All times are in EDT time to prevent confusion due to time zone crossing. See the PDT4373 flight status page for this flight to view local times or setup timezone preferences in your user account.


Time Position Orientation Groundspeed Altitude Reporting Facility
EDT Latitude Longitude Course Direction KTS MPH feet Rate Location/Type
Fri 10:30:18 AM 39.8833 -75.2000 37° Northeast 118 136 700  Level Philadelphia TRACON
Fri 10:31:24 AM 39.9167 -75.1667 37° Northeast 149 171 1,800 905 Climbing Philadelphia TRACON
Fri 10:32:24 AM 39.9500 -75.1333 37° Northeast 154 177 2,600 842 Climbing Philadelphia TRACON
Fri 10:33:18 AM 39.9833 -75.1167 21° North 160 184 3,400 889 Climbing Philadelphia TRACON
Fri 10:34:12 AM 40.0167 -75.1333 339° North 159 183 4,200 900 Climbing Philadelphia TRACON
Fri 10:35:18 AM 40.0500 -75.1833 311° West 156 180 5,200 810 Climbing Philadelphia TRACON
Fri 10:36:18 AM 40.0667 -75.2333 294° West 160 184 5,900 820 Climbing Philadelphia TRACON
Fri 10:37:37 AM 40.1000 -75.2833 311° West 155 178 7,100 876 Climbing Philadelphia TRACON
Fri 10:39:23 AM 40.1342 -75.3756 296° West 166 191 8,600 695 Climbing New York Center
Fri 10:40:21 AM 40.1569 -75.4286 299° West 166 191 9,000 353 Climbing New York Center
Fri 10:41:22 AM 40.1839 -75.4903 300° West 172 198 9,300 496 Climbing New York Center
Fri 10:42:22 AM 40.2133 -75.5358 310° West 187 215 10,000 655 Climbing New York Center
Fri 10:43:21 AM 40.2444 -75.5869 309° West 187 215 10,600 712 Climbing New York Center
Fri 10:44:20 AM 40.2778 -75.6408 309° West 182 209 11,400 700 Climbing New York Center
Fri 10:45:21 AM 40.3092 -75.6867 312° West 177 204 12,000 590 Climbing New York Center
Fri 10:46:22 AM 40.3517 -75.7169 332° Northwest 172 198 12,600 605 Climbing New York Center
Fri 10:47:20 AM 40.3903 -75.7414 334° Northwest 167 192 13,200 610 Climbing New York Center
Fri 10:48:20 AM 40.4303 -75.7769 326° Northwest 172 198 13,800 400 Climbing New York Center
Fri 10:49:20 AM 40.4767 -75.8158 327° Northwest 177 204 14,000 98 Climbing New York Center
Fri 10:50:22 AM 40.5231 -75.8547 327° Northwest 187 215 14,000  Level New York Center
Fri 10:51:20 AM 40.5628 -75.8958 322° Northwest 199 229 14,000  Level New York Center
Fri 10:52:21 AM 40.6239 -75.9306 337° Northwest 205 236 14,000  Level New York Center
Fri 10:53:21 AM 40.6767 -75.9647 334° Northwest 210 242 14,000  Level New York Center
Fri 10:54:20 AM 40.7186 -76.0033 325° Northwest 210 242 14,000  Level New York Center
Fri 10:55:21 AM 40.7728 -76.0486 328° Northwest 210 242 14,000  Level New York Center
Fri 10:56:22 AM 40.8306 -76.0642 348° North 204 235 14,000  Level New York Center
Fri 10:57:20 AM 40.8797 -76.0844 343° North 204 235 14,000  Level New York Center
Fri 10:58:21 AM 40.9347 -76.1081 342° North 204 235 14,000  Level New York Center
Fri 10:59:20 AM 40.9925 -76.1236 349° North 204 235 14,000  Level New York Center
Fri 11:00:21 AM 41.0481 -76.1389 348° North 204 235 14,000  Level New York Center
Fri 11:01:22 AM 41.1094 -76.1631 343° North 204 235 14,000  Level New York Center
Fri 11:02:20 AM 41.1650 -76.1783 348° North 204 235 14,000  Level New York Center
Fri 11:03:21 AM 41.2203 -76.1967 346° North 204 235 14,000  Level New York Center
Fri 11:04:19 AM 41.2725 -76.1981 359° North 198 228 14,000  Level New York Center
Fri 11:05:20 AM 41.3314 -76.1836 10° North 198 228 14,000  Level New York Center
Fri 11:06:20 AM 41.3964 -76.1722 North 203 234 14,000  Level New York Center
Fri 11:07:22 AM 41.4556 -76.1547 12° North 203 234 14,000  Level New York Center
Fri 11:08:20 AM 41.5147 -76.1372 12° North 203 234 14,000 -356 Level New York Center
Fri 11:09:20 AM 41.5642 -76.1497 349° North 203 234 13,300 -893 Descending New York Center
Fri 11:10:21 AM 41.6197 -76.1625 350° North 197 227 12,200 -1,200 Descending New York Center
Fri 11:11:20 AM 41.6794 -76.1811 347° North 197 227 10,900 -1,200 Descending New York Center
Fri 11:12:21 AM 41.7308 -76.1936 350° North 197 227 9,800 -1,082 Descending New York Center
Fri 11:13:22 AM 41.7836 -76.1756 14° North 192 221 8,700 -942 Descending New York Center
Fri 11:14:22 AM 41.8286 -76.1514 22° Northeast 192 221 7,900 -950 Descending New York Center
Fri 11:15:22 AM 41.8856 -76.1367 11° North 187 215 6,800 -950 Descending New York Center
Fri 11:16:22 AM 41.9344 -76.1100 22° Northeast 187 215 6,000 -908 Descending New York Center
Fri 11:17:21 AM 41.9778 -76.0744 31° Northeast 187 215 5,000 -750 Descending New York Center
Fri 11:18:22 AM 42.0186 -76.0469 27° Northeast 181 208 4,500 -550 Descending New York Center
Fri 11:19:21 AM 42.0700 -76.0119 27° Northeast 181 208 3,900 -559 Descending New York Center
Fri 11:20:20 AM 42.1131 -75.9789 30° Northeast 181 208 3,400 -500 Descending New York Center
Fri 11:21:21 AM 42.1453 -75.9564 27° Northeast 159 183 2,900 -541 Descending New York Center
Fri 11:22:22 AM 42.1728 -75.9500 10° North 126 145 2,300 -454 Descending New York Center
Fri 11:23:20 AM 42.2022 -75.9411 13° North 112 129 2,000 -310 Descending New York Center
Fri 11:25:00 AM 42.2000 -75.9667 37° Northeast  Level FlightAware Approximate

Login

Don't have an account? Register now (free) for customized features, flight alerts, and more!